This is the latest recevied weather packets stored in our database for station/object K4FB. If no packets are shown the sender has not sent any weather packets the latest 10 day(s).
| Time | Temp. | Humidity | Pressure | Rain* | Wind** | Luminosity | Snow |
|---|---|---|---|---|---|---|---|
| 1778052904 | 16.67° C | 89% | 1016.5 hPa | 0 mm | - | - | - |
| 1778052309 | 16.67° C | 89% | 1016.7 hPa | 0 mm | - | - | - |
| 1778050806 | 17.22° C | 88% | 1016.8 hPa | 0 mm | - | - | - |
| 1778046313 | 17.78° C | 86% | 1017.3 hPa | 0 mm | - | - | - |
| 1778043640 | 18.33° C | 83% | 1017.6 hPa | 0 mm | - | - | - |
| 1778043005 | 18.33° C | 82% | 1017.7 hPa | 0 mm | - | - | - |
| 1778042108 | 18.89° C | 81% | 1017.8 hPa | 0 mm | - | - | - |
| 1778040915 | 18.89° C | 80% | 1017.6 hPa | 0 mm | - | - | - |
| 1778040305 | 19.44° C | 79% | 1017.6 hPa | 0 mm | - | - | - |
| 1778039111 | 19.44° C | 79% | 1017.7 hPa | 0 mm | - | - | - |
| 1778038514 | 19.44° C | 78% | 1017.6 hPa | 0 mm | - | - | - |
| 1778037906 | 19.44° C | 78% | 1017.9 hPa | 0 mm | - | - | - |
| 1778037323 | 20° C | 77% | 1017.7 hPa | 0 mm | - | - | - |
| 1778036704 | 20° C | 76% | 1017.6 hPa | 0 mm | - | - | - |
| 1778035208 | 21.11° C | 73% | 1017.5 hPa | 0 mm | - | - | - |
| 1778034905 | 21.11° C | 72% | 1017.4 hPa | 0 mm | - | - | - |
| 1778034014 | 21.67° C | 71% | 1017.5 hPa | 0 mm | - | - | - |
| 1778032504 | 22.78° C | 67% | 1017.2 hPa | 0 mm | - | - | - |
| 1778030705 | 23.33° C | 65% | 1016.5 hPa | 0 mm | - | - | - |
| 1778028607 | 24.44° C | 62% | 1016 hPa | 0 mm | - | - | - |
| 1778028003 | 25° C | 61% | 1016 hPa | 0 mm | - | - | - |
| 1778022907 | 28.89° C | 49% | 1015 hPa | 0 mm | - | - | - |
| 1778017206 | 32.22° C | 43% | 1015 hPa | 0 mm | - | - | - |
| 1778016903 | 32.22° C | 44% | 1015 hPa | 0 mm | - | - | - |
| 1778016306 | 31.67° C | 43% | 1014.9 hPa | 0 mm | - | - | - |
* Rain latest hour (hover to see other rain measurements)
** Current wind speed in m/s (hover to see current wind gust speed)